createdAt,value
2017-05-08T00:00:25.973Z,12.74
2017-05-08T00:02:55.043Z,13.46
2017-05-08T00:05:24.138Z,15.32
2017-05-08T00:07:53.615Z,16.04
2017-05-08T00:10:22.696Z,16.30
2017-05-08T00:12:51.779Z,17.52
2017-05-08T00:15:20.898Z,19.06
2017-05-08T00:17:49.971Z,22.62
2017-05-08T00:20:19.072Z,20.88
2017-05-08T00:22:48.870Z,22.08
2017-05-08T00:25:17.966Z,22.78
2017-05-08T00:27:47.771Z,23.60
2017-05-08T00:30:17.001Z,23.08
2017-05-08T00:32:46.060Z,28.34
2017-05-08T00:35:15.879Z,26.94
2017-05-08T00:37:45.714Z,28.34
2017-05-08T00:40:14.789Z,28.80
2017-05-08T00:42:44.883Z,27.28
2017-05-08T00:45:14.087Z,27.10
2017-05-08T00:47:43.527Z,28.56
2017-05-08T00:50:12.624Z,27.26
2017-05-08T00:52:42.418Z,26.32
2017-05-08T00:55:12.244Z,29.30
2017-05-08T00:57:41.310Z,27.80
2017-05-08T01:00:10.515Z,30.74
2017-05-08T01:02:45.438Z,29.60
2017-05-08T01:05:21.627Z,26.02
2017-05-08T01:07:56.586Z,24.48
2017-05-08T01:10:32.104Z,25.54
2017-05-08T01:13:07.125Z,22.54
2017-05-08T01:15:43.191Z,22.18
2017-05-08T01:18:18.115Z,21.94
2017-05-08T01:20:53.412Z,20.82
2017-05-08T01:23:29.071Z,23.00
2017-05-08T01:26:04.251Z,20.06
2017-05-08T01:28:39.283Z,23.94
2017-05-08T01:31:14.627Z,22.48
2017-05-08T01:33:50.351Z,23.48
2017-05-08T01:36:25.715Z,23.64
2017-05-08T01:39:00.731Z,22.98
2017-05-08T01:41:35.851Z,20.02
2017-05-08T01:44:10.736Z,22.56
2017-05-08T01:46:46.055Z,22.80
2017-05-08T01:49:20.974Z,24.00
2017-05-08T01:51:56.058Z,23.54
2017-05-08T01:54:30.957Z,20.28
2017-05-08T01:57:06.499Z,21.50
2017-05-08T01:59:41.516Z,23.00
2017-05-08T02:02:16.770Z,22.78
2017-05-08T02:04:51.892Z,23.30
2017-05-08T02:07:27.246Z,21.68
2017-05-08T02:10:02.347Z,21.92
2017-05-08T02:12:37.427Z,20.76
2017-05-08T02:15:12.335Z,19.06
2017-05-08T02:17:47.655Z,19.50
2017-05-08T02:20:22.563Z,19.56
2017-05-08T02:22:57.763Z,18.60
2017-05-08T02:25:32.743Z,17.84
2017-05-08T02:28:08.237Z,17.50
2017-05-08T02:30:43.868Z,18.22
2017-05-08T02:33:18.814Z,19.44
2017-05-08T02:35:54.651Z,20.40
2017-05-08T02:38:29.803Z,18.20
2017-05-08T02:41:04.820Z,18.80
2017-05-08T02:43:40.493Z,20.56
2017-05-08T02:46:15.402Z,18.72
2017-05-08T02:48:50.619Z,17.96
2017-05-08T02:51:25.731Z,18.96
2017-05-08T02:54:01.769Z,19.18
2017-05-08T02:56:36.688Z,19.72
2017-05-08T02:59:12.839Z,16.66
2017-05-08T03:01:47.842Z,17.84
2017-05-08T03:04:23.941Z,19.08
2017-05-08T03:06:58.972Z,17.70
2017-05-08T03:09:34.306Z,18.14
2017-05-08T03:12:09.464Z,19.68
2017-05-08T03:14:44.688Z,18.12
2017-05-08T03:17:19.739Z,18.80
2017-05-08T03:19:55.568Z,19.54
2017-05-08T03:22:30.542Z,19.38
2017-05-08T03:25:06.450Z,17.08
2017-05-08T03:27:41.486Z,17.78
2017-05-08T03:30:16.936Z,20.08
2017-05-08T03:32:51.916Z,19.84
2017-05-08T03:35:26.987Z,21.48
2017-05-08T03:38:02.638Z,20.36
2017-05-08T03:40:37.789Z,20.70
2017-05-08T03:43:13.611Z,20.06
2017-05-08T03:45:48.642Z,22.38
2017-05-08T03:48:24.400Z,21.96
2017-05-08T03:50:59.880Z,24.38
2017-05-08T03:53:34.839Z,26.76
2017-05-08T03:56:10.181Z,29.70
2017-05-08T03:58:45.288Z,32.66
2017-05-08T04:01:20.480Z,33.36
2017-05-08T04:03:55.377Z,33.68
2017-05-08T04:06:31.218Z,34.66
2017-05-08T04:09:06.111Z,35.02
2017-05-08T04:11:41.172Z,35.24
2017-05-08T04:14:16.135Z,36.86
2017-05-08T04:16:51.387Z,33.48
2017-05-08T04:19:26.272Z,32.08
2017-05-08T04:22:01.821Z,34.92
2017-05-08T04:24:37.551Z,37.44
2017-05-08T04:27:12.555Z,35.94
2017-05-08T04:29:48.236Z,34.20
2017-05-08T04:32:23.412Z,34.98
2017-05-08T04:34:58.322Z,32.62
2017-05-08T04:37:33.342Z,26.62
2017-05-08T04:40:08.295Z,31.52
2017-05-08T04:42:43.521Z,27.24
2017-05-08T04:45:18.471Z,24.42
2017-05-08T04:47:53.734Z,25.70
2017-05-08T04:50:28.842Z,24.34
2017-05-08T04:53:04.391Z,22.74
2017-05-08T04:55:39.367Z,21.70
2017-05-08T04:58:14.460Z,22.64
2017-05-08T05:00:49.388Z,24.04
2017-05-08T05:03:24.710Z,21.42
2017-05-08T05:05:59.603Z,20.36
2017-05-08T05:08:34.879Z,18.54
2017-05-08T05:11:09.967Z,18.76
2017-05-08T05:13:45.171Z,18.60
2017-05-08T05:16:20.174Z,17.86
2017-05-08T05:18:55.416Z,18.06
2017-05-08T05:21:31.082Z,17.58
2017-05-08T05:24:06.355Z,15.88
2017-05-08T05:26:41.451Z,15.00
2017-05-08T05:29:16.807Z,15.04
2017-05-08T05:31:51.700Z,16.08
2017-05-08T05:34:26.887Z,14.76
2017-05-08T05:37:01.927Z,15.46
2017-05-08T05:39:37.038Z,14.90
2017-05-08T05:42:12.195Z,13.84
2017-05-08T05:44:47.483Z,12.94
2017-05-08T05:47:23.155Z,13.40
2017-05-08T05:49:58.503Z,15.56
2017-05-08T05:52:33.392Z,12.52
2017-05-08T05:55:08.775Z,14.18
2017-05-08T05:57:43.703Z,13.96
2017-05-08T06:00:18.779Z,14.50
2017-05-08T06:02:53.831Z,12.30
2017-05-08T06:05:29.219Z,10.92
2017-05-08T06:08:04.112Z,12.20
2017-05-08T06:10:40.028Z,10.98
2017-05-08T06:13:14.995Z,13.86
2017-05-08T06:15:51.074Z,11.80
2017-05-08T06:18:26.028Z,11.04
2017-05-08T06:21:01.139Z,11.78
2017-05-08T06:23:36.215Z,12.06
2017-05-08T06:26:11.530Z,11.84
2017-05-08T06:28:46.570Z,10.92
2017-05-08T06:31:21.739Z,12.56
2017-05-08T06:33:56.698Z,11.64
2017-05-08T06:36:31.894Z,10.62
2017-05-08T06:39:06.799Z,9.92
2017-05-08T06:41:42.868Z,10.48
2017-05-08T06:44:17.814Z,10.70
2017-05-08T06:46:53.122Z,10.78
2017-05-08T06:49:27.992Z,11.50
2017-05-08T06:52:03.510Z,10.40
2017-05-08T06:54:38.435Z,11.12
2017-05-08T06:57:13.544Z,10.00
2017-05-08T06:59:48.591Z,9.46
2017-05-08T07:02:23.979Z,10.44
2017-05-08T07:04:58.912Z,8.64
2017-05-08T07:07:34.306Z,9.42
2017-05-08T07:10:09.218Z,8.62
2017-05-08T07:12:44.439Z,8.98
2017-05-08T07:15:19.303Z,9.88
2017-05-08T07:17:54.778Z,10.36
2017-05-08T07:20:29.719Z,10.82
2017-05-08T07:23:04.936Z,11.42
2017-05-08T07:25:39.899Z,10.84
2017-05-08T07:28:15.124Z,10.32
2017-05-08T07:30:50.388Z,12.38
2017-05-08T07:33:25.345Z,10.14
2017-05-08T07:36:00.316Z,10.76
2017-05-08T07:38:35.407Z,11.30
2017-05-08T07:41:10.371Z,12.66
2017-05-08T07:43:45.523Z,16.38
2017-05-08T07:46:20.699Z,14.44
2017-05-08T07:48:56.005Z,14.32
2017-05-08T07:51:30.956Z,14.60
2017-05-08T07:54:06.166Z,15.66
2017-05-08T07:56:41.199Z,16.94
2017-05-08T07:59:16.575Z,15.08
2017-05-08T08:01:51.527Z,19.14
2017-05-08T08:04:26.612Z,18.08
2017-05-08T08:07:01.595Z,19.04
2017-05-08T08:09:36.649Z,17.84
2017-05-08T08:12:11.606Z,18.64
2017-05-08T08:14:46.782Z,16.82
2017-05-08T08:17:21.795Z,17.16
2017-05-08T08:19:56.907Z,18.06
2017-05-08T08:22:32.639Z,13.98
2017-05-08T08:25:07.907Z,14.10
2017-05-08T08:27:43.670Z,11.92
2017-05-08T08:30:18.947Z,12.64
2017-05-08T08:32:53.891Z,14.28
2017-05-08T08:35:28.887Z,15.56
2017-05-08T08:38:04.200Z,14.62
2017-05-08T08:40:39.543Z,16.50
2017-05-08T08:43:15.276Z,20.32
2017-05-08T08:45:50.362Z,11.82
2017-05-08T08:48:25.473Z,13.00
2017-05-08T08:51:00.603Z,8.64
2017-05-08T08:53:35.561Z,11.40
2017-05-08T08:56:10.905Z,9.22
2017-05-08T08:58:45.928Z,10.30
2017-05-08T09:01:21.259Z,12.50
2017-05-08T09:03:56.444Z,9.20
2017-05-08T09:06:31.571Z,10.46
2017-05-08T09:09:06.455Z,8.00
2017-05-08T09:11:41.543Z,6.00
2017-05-08T09:14:16.642Z,7.08
2017-05-08T09:16:52.071Z,7.96
2017-05-08T09:19:27.042Z,5.04
2017-05-08T09:22:02.240Z,4.58
2017-05-08T09:24:37.175Z,4.86
2017-05-08T09:27:12.679Z,4.76
2017-05-08T09:29:47.759Z,5.28
2017-05-08T09:32:22.803Z,5.48
2017-05-08T09:34:57.766Z,6.06
2017-05-08T09:37:33.592Z,6.42
2017-05-08T09:40:08.471Z,4.68
2017-05-08T09:42:44.443Z,4.92
2017-05-08T09:45:19.585Z,7.04
2017-05-08T09:47:54.684Z,7.24
2017-05-08T09:50:29.663Z,6.28
2017-05-08T09:53:04.801Z,7.12
2017-05-08T09:55:39.815Z,5.90
2017-05-08T09:58:15.239Z,4.86
2017-05-08T10:00:50.127Z,5.18
2017-05-08T10:03:25.218Z,4.02
2017-05-08T10:06:00.106Z,4.62
2017-05-08T10:08:35.315Z,4.84
2017-05-08T10:11:10.925Z,3.90
2017-05-08T10:13:45.955Z,5.58
2017-05-08T10:16:20.930Z,5.76
2017-05-08T10:18:55.964Z,5.14
2017-05-08T10:21:30.911Z,6.14
2017-05-08T10:24:05.878Z,6.42
2017-05-08T10:26:40.760Z,6.42
2017-05-08T10:29:16.281Z,5.52
2017-05-08T10:31:51.233Z,6.58
2017-05-08T10:34:27.184Z,6.02
2017-05-08T10:37:02.204Z,8.40
2017-05-08T10:39:37.267Z,6.34
2017-05-08T10:42:12.165Z,7.66
2017-05-08T10:44:47.743Z,6.70
2017-05-08T10:47:22.792Z,6.64
2017-05-08T10:49:58.131Z,8.04
2017-05-08T10:52:33.026Z,7.96
2017-05-08T10:55:08.184Z,9.70
2017-05-08T10:57:43.302Z,8.14
2017-05-08T11:00:18.492Z,8.28
2017-05-08T11:02:53.738Z,7.72
2017-05-08T11:05:29.952Z,9.24
2017-05-08T11:08:04.978Z,8.42
2017-05-08T11:10:42.067Z,10.08
2017-05-08T11:13:17.070Z,9.22
2017-05-08T11:15:52.372Z,8.94
2017-05-08T11:18:27.505Z,8.76
2017-05-08T11:21:02.513Z,7.00
2017-05-08T11:23:38.135Z,8.30
2017-05-08T11:26:13.231Z,7.60
2017-05-08T11:28:48.134Z,8.64
2017-05-08T11:31:23.164Z,9.94
2017-05-08T11:33:58.211Z,10.22
2017-05-08T11:36:33.341Z,11.96
2017-05-08T11:39:09.163Z,11.80
2017-05-08T11:41:44.822Z,11.78
2017-05-08T11:44:19.752Z,12.34
2017-05-08T11:46:55.006Z,9.52
2017-05-08T11:49:29.941Z,11.22
2017-05-08T11:52:05.176Z,9.14
2017-05-08T11:54:40.207Z,11.22
2017-05-08T11:57:15.470Z,8.98
2017-05-08T11:59:50.497Z,7.68
2017-05-08T12:02:25.549Z,8.02
2017-05-08T12:05:00.647Z,8.62
2017-05-08T12:07:35.727Z,10.30
2017-05-08T12:10:10.783Z,9.64
2017-05-08T12:12:46.262Z,11.02
2017-05-08T12:15:21.197Z,10.72
2017-05-08T12:17:56.276Z,11.34
2017-05-08T12:20:31.302Z,13.82
2017-05-08T12:23:06.594Z,9.20
2017-05-08T12:25:41.715Z,10.02
2017-05-08T12:28:16.912Z,9.28
2017-05-08T12:30:51.883Z,13.38
2017-05-08T12:33:26.988Z,9.18
2017-05-08T12:36:01.902Z,8.30
2017-05-08T12:38:37.108Z,9.28
2017-05-08T12:41:12.116Z,7.78
2017-05-08T12:43:47.296Z,8.88
2017-05-08T12:46:22.247Z,7.04
2017-05-08T12:48:57.243Z,7.92
2017-05-08T12:51:32.202Z,6.60
2017-05-08T12:54:07.399Z,6.98
2017-05-08T12:56:42.543Z,6.76
2017-05-08T12:59:17.642Z,6.84
2017-05-08T13:01:52.571Z,5.88
2017-05-08T13:04:27.863Z,6.16
2017-05-08T13:07:02.923Z,5.42
2017-05-08T13:09:38.042Z,5.70
2017-05-08T13:12:13.022Z,5.64
2017-05-08T13:14:49.239Z,6.50
2017-05-08T13:17:24.246Z,6.78
2017-05-08T13:19:59.319Z,7.68
2017-05-08T13:22:34.247Z,9.02
2017-05-08T13:25:09.972Z,8.62
2017-05-08T13:27:45.596Z,7.80
2017-05-08T13:30:20.666Z,7.10
2017-05-08T13:32:55.635Z,6.78
2017-05-08T13:35:30.754Z,7.08
2017-05-08T13:38:05.682Z,6.88
2017-05-08T13:40:40.882Z,7.42
2017-05-08T13:43:15.745Z,7.50
2017-05-08T13:45:51.155Z,6.32
2017-05-08T13:48:26.103Z,7.44
2017-05-08T13:51:01.435Z,6.88
2017-05-08T13:53:37.154Z,8.02
2017-05-08T13:56:12.626Z,9.08
2017-05-08T13:58:47.534Z,7.52
2017-05-08T14:01:23.006Z,8.38
2017-05-08T14:03:58.066Z,7.70
2017-05-08T14:06:33.347Z,8.12
2017-05-08T14:09:08.310Z,7.44
2017-05-08T14:11:43.371Z,8.18
2017-05-08T14:14:18.324Z,7.54
2017-05-08T14:16:53.724Z,7.26
2017-05-08T14:19:28.661Z,6.90
2017-05-08T14:22:03.886Z,7.42
2017-05-08T14:24:39.143Z,7.44
2017-05-08T14:27:14.391Z,6.72
2017-05-08T14:29:49.412Z,7.20
2017-05-08T14:32:24.459Z,8.36
2017-05-08T14:34:59.500Z,8.18
2017-05-08T14:37:34.539Z,7.88
2017-05-08T14:40:09.477Z,7.78
2017-05-08T14:42:44.793Z,8.90
2017-05-08T14:45:19.882Z,6.96
2017-05-08T14:47:55.059Z,7.48
2017-05-08T14:50:29.989Z,8.64
2017-05-08T14:53:05.242Z,7.20
2017-05-08T14:55:41.043Z,8.68
2017-05-08T14:58:16.406Z,6.62
2017-05-08T15:00:51.491Z,6.82
2017-05-08T15:03:27.924Z,7.14
2017-05-08T15:06:02.971Z,7.98
2017-05-08T15:08:38.088Z,8.44
2017-05-08T15:11:13.008Z,6.90
2017-05-08T15:13:48.104Z,10.20
2017-05-08T15:16:23.182Z,7.58
2017-05-08T15:18:58.505Z,7.76
2017-05-08T15:21:34.251Z,7.74
2017-05-08T15:24:09.331Z,7.26
2017-05-08T15:26:44.368Z,5.42
2017-05-08T15:29:20.316Z,5.56
2017-05-08T15:31:55.274Z,4.04
2017-05-08T15:34:30.327Z,3.52
2017-05-08T15:37:05.479Z,4.48
2017-05-08T15:39:40.651Z,4.62
2017-05-08T15:42:15.748Z,5.24
2017-05-08T15:44:50.819Z,5.18
2017-05-08T15:47:26.439Z,5.28
2017-05-08T15:50:01.510Z,5.30
2017-05-08T15:52:36.614Z,3.92
2017-05-08T15:55:11.685Z,4.40
2017-05-08T15:57:46.728Z,3.90
2017-05-08T16:00:21.778Z,4.96
2017-05-08T16:02:56.859Z,4.84
2017-05-08T16:05:32.008Z,5.26
2017-05-08T16:08:06.919Z,7.46
2017-05-08T16:10:42.392Z,4.92
2017-05-08T16:13:17.428Z,5.42
2017-05-08T16:15:52.669Z,4.98
2017-05-08T16:18:28.383Z,6.80
2017-05-08T16:21:04.142Z,6.34
2017-05-08T16:23:39.074Z,4.90
2017-05-08T16:26:14.472Z,6.22
2017-05-08T16:28:49.483Z,5.60
2017-05-08T16:31:24.828Z,5.10
2017-05-08T16:33:59.741Z,6.42
2017-05-08T16:36:34.930Z,6.16
2017-05-08T16:39:09.943Z,6.22
2017-05-08T16:41:45.212Z,5.80
2017-05-08T16:44:20.291Z,5.50
2017-05-08T16:46:55.727Z,5.96
2017-05-08T16:49:30.735Z,5.64
2017-05-08T16:52:05.903Z,6.12
2017-05-08T16:54:40.876Z,6.54
2017-05-08T16:57:16.775Z,6.84
2017-05-08T16:59:51.695Z,4.56
2017-05-08T17:02:26.687Z,5.34
2017-05-08T17:05:01.688Z,8.48
2017-05-08T17:07:37.228Z,5.50
2017-05-08T17:10:13.059Z,7.98
2017-05-08T17:12:48.230Z,6.14
2017-05-08T17:15:23.200Z,6.56
2017-05-08T17:17:58.724Z,6.12
2017-05-08T17:20:33.794Z,8.08
2017-05-08T17:23:09.606Z,6.38
2017-05-08T17:25:44.540Z,5.64
2017-05-08T17:28:19.732Z,6.38
2017-05-08T17:30:54.807Z,5.98
2017-05-08T17:33:30.040Z,7.66
2017-05-08T17:36:05.144Z,5.86
2017-05-08T17:38:40.186Z,6.44
2017-05-08T17:41:15.244Z,5.54
2017-05-08T17:43:50.483Z,5.70
2017-05-08T17:46:25.632Z,6.60
2017-05-08T17:49:01.418Z,5.44
2017-05-08T17:51:36.605Z,6.54
2017-05-08T17:54:11.801Z,6.34
2017-05-08T17:56:46.750Z,5.52
2017-05-08T17:59:21.812Z,5.84
2017-05-08T18:01:57.203Z,5.00
2017-05-08T18:04:32.217Z,5.68
2017-05-08T18:07:07.116Z,6.32
2017-05-08T18:09:42.584Z,8.02
2017-05-08T18:12:17.570Z,7.70
2017-05-08T18:14:53.361Z,7.20
2017-05-08T18:17:28.323Z,6.38
2017-05-08T18:20:04.137Z,7.76
2017-05-08T18:22:39.093Z,6.42
2017-05-08T18:25:14.207Z,6.16
2017-05-08T18:27:50.096Z,6.58
2017-05-08T18:30:25.337Z,6.68
2017-05-08T18:33:00.320Z,5.68
2017-05-08T18:35:35.362Z,7.48
2017-05-08T18:38:10.276Z,6.10
2017-05-08T18:40:45.524Z,6.82
2017-05-08T18:43:20.564Z,7.20
2017-05-08T18:45:55.747Z,7.52
2017-05-08T18:48:31.413Z,6.54
2017-05-08T18:51:06.891Z,6.56
2017-05-08T18:53:41.863Z,6.74
2017-05-08T18:56:17.052Z,8.10
2017-05-08T18:58:52.130Z,7.78
2017-05-08T19:01:27.968Z,6.18
2017-05-08T19:04:02.895Z,5.98
2017-05-08T19:06:38.007Z,6.46
2017-05-08T19:09:13.096Z,5.80
2017-05-08T19:11:48.500Z,5.84
2017-05-08T19:14:23.412Z,5.38
2017-05-08T19:16:58.485Z,5.98
2017-05-08T19:19:34.315Z,5.92
2017-05-08T19:22:09.520Z,6.32
2017-05-08T19:24:45.168Z,6.80
2017-05-08T19:27:20.349Z,5.82
2017-05-08T19:29:55.493Z,6.64
2017-05-08T19:32:30.912Z,7.18
2017-05-08T19:35:06.655Z,6.56
2017-05-08T19:37:41.581Z,7.04
2017-05-08T19:40:16.493Z,6.36
2017-05-08T19:42:51.539Z,5.80
2017-05-08T19:45:26.508Z,5.86
2017-05-08T19:48:01.514Z,5.84
2017-05-08T19:50:30.715Z,7.54
2017-05-08T19:52:59.795Z,5.94
2017-05-08T19:55:28.939Z,7.24
2017-05-08T19:57:58.013Z,5.54
2017-05-08T20:00:27.081Z,4.40
2017-05-08T20:02:56.872Z,6.24
2017-05-08T20:05:26.077Z,6.10
2017-05-08T20:07:55.899Z,6.32
2017-05-08T20:10:25.004Z,4.80
2017-05-08T20:12:54.089Z,6.46
2017-05-08T20:15:23.168Z,4.76
2017-05-08T20:17:52.992Z,5.66
2017-05-08T20:20:22.331Z,5.64
2017-05-08T20:22:51.431Z,5.68
2017-05-08T20:25:20.500Z,4.86
2017-05-08T20:27:49.797Z,5.10
2017-05-08T20:30:18.852Z,4.28
2017-05-08T20:32:47.906Z,5.22
2017-05-08T20:35:17.400Z,5.10
2017-05-08T20:37:46.473Z,7.48
2017-05-08T20:40:15.663Z,6.88
2017-05-08T20:42:45.470Z,5.98
2017-05-08T20:45:14.515Z,5.60
2017-05-08T20:47:43.611Z,5.48
2017-05-08T20:50:12.716Z,4.92
2017-05-08T20:52:41.958Z,4.84
2017-05-08T20:55:11.069Z,6.12
2017-05-08T20:57:40.138Z,5.00
2017-05-08T21:00:09.961Z,5.56
2017-05-08T21:02:39.752Z,5.34
2017-05-08T21:05:09.578Z,5.76
2017-05-08T21:07:38.640Z,5.34
2017-05-08T21:10:07.823Z,5.02
2017-05-08T21:12:36.889Z,5.54
2017-05-08T21:15:05.952Z,5.42
2017-05-08T21:17:35.030Z,5.16
2017-05-08T21:20:04.091Z,5.12
2017-05-08T21:22:33.311Z,5.58
2017-05-08T21:25:02.370Z,5.24
2017-05-08T21:27:31.454Z,5.68
2017-05-08T21:30:01.267Z,4.88
2017-05-08T21:32:30.335Z,4.80
2017-05-08T21:34:59.543Z,4.54
2017-05-08T21:37:28.607Z,5.38
2017-05-08T21:39:57.668Z,4.70
2017-05-08T21:42:26.765Z,4.36
2017-05-08T21:44:55.849Z,5.66
2017-05-08T21:47:24.912Z,5.40
2017-05-08T21:49:53.986Z,5.56
2017-05-08T21:52:23.321Z,6.10
2017-05-08T21:54:52.405Z,5.20
2017-05-08T21:57:22.196Z,5.52
2017-05-08T21:59:51.279Z,5.40
2017-05-08T22:02:20.338Z,6.02
2017-05-08T22:04:49.429Z,6.96
2017-05-08T22:07:18.508Z,5.54
2017-05-08T22:09:47.847Z,5.22
2017-05-08T22:12:16.904Z,5.44
2017-05-08T22:14:46.000Z,5.50
2017-05-08T22:17:15.106Z,5.20
2017-05-08T22:19:44.163Z,4.94
2017-05-08T22:22:13.243Z,5.56
2017-05-08T22:24:42.311Z,4.46
2017-05-08T22:27:11.759Z,5.54
2017-05-08T22:29:40.840Z,5.64
2017-05-08T22:32:09.895Z,4.66
2017-05-08T22:34:38.993Z,5.32
2017-05-08T22:37:08.052Z,5.88
2017-05-08T22:39:37.452Z,5.72
2017-05-08T22:42:06.499Z,4.82
2017-05-08T22:44:35.591Z,5.72
2017-05-08T22:47:04.691Z,6.10
2017-05-08T22:49:33.761Z,7.30
2017-05-08T22:52:02.959Z,7.60
2017-05-08T22:54:32.027Z,6.66
2017-05-08T22:57:01.096Z,5.48
2017-05-08T22:59:30.928Z,6.06
2017-05-08T23:02:00.869Z,4.58
2017-05-08T23:04:30.019Z,6.74
2017-05-08T23:06:59.093Z,4.84
2017-05-08T23:09:28.940Z,5.80
2017-05-08T23:11:57.988Z,5.26
2017-05-08T23:14:27.209Z,6.28
2017-05-08T23:16:56.306Z,5.82
2017-05-08T23:19:25.388Z,6.36
2017-05-08T23:21:55.218Z,6.30
2017-05-08T23:24:25.020Z,5.30
2017-05-08T23:26:54.139Z,7.68
2017-05-08T23:29:23.203Z,5.86
2017-05-08T23:31:52.632Z,6.30
2017-05-08T23:34:21.711Z,4.70
2017-05-08T23:36:50.779Z,4.52
2017-05-08T23:39:19.861Z,5.30
2017-05-08T23:41:48.926Z,5.24
2017-05-08T23:44:18.315Z,5.70
2017-05-08T23:46:47.356Z,6.08
2017-05-08T23:49:16.417Z,5.96
2017-05-08T23:51:45.507Z,6.16
2017-05-08T23:54:14.568Z,5.50
2017-05-08T23:56:43.663Z,5.70
2017-05-08T23:59:12.730Z,5.80
